Time;durP1;ratioP1;P1;durP2;ratioP2;P2;SDS_P1;SDS_P2;PMS_P1;PMS_P2;Temp;Humidity;BMP_temperature;BMP_pressure;BME280_temperature;BME280_humidity;BME280_pressure;Samples;Min_cycle;Max_cycle;Signal;HPM_P1;HPM_P2
2023/04/24 00:00:48;;;;;;;7.97;7.28;;;;;;;;;;10125403;28;20056;-66
2023/04/24 00:05:42;;;;;;;4.63;4.20;;;;;;;;;;10113032;28;20045;-66
2023/04/24 00:10:36;;;;;;;4.80;3.92;;;;;;;;;;10118641;28;20136;-66
2023/04/24 00:15:31;;;;;;;5.13;4.20;;;;;;;;;;10109234;28;20553;-66
2023/04/24 00:20:25;;;;;;;4.13;3.40;;;;;;;;;;10128218;28;20053;-67
2023/04/24 00:25:19;;;;;;;4.93;4.00;;;;;;;;;;10116323;28;20041;-66
2023/04/24 00:30:12;;;;;;;7.00;4.25;;;;;;;;;;10118449;28;20049;-67
2023/04/24 00:35:06;;;;;;;6.13;4.68;;;;;;;;;;10115182;28;20045;-67
2023/04/24 00:40:00;;;;;;;6.32;4.50;;;;;;;;;;10108438;28;20411;-66
2023/04/24 00:44:54;;;;;;;6.07;4.20;;;;;;;;;;10125251;28;20439;-66
2023/04/24 00:49:48;;;;;;;9.30;4.30;;;;;;;;;;10136669;28;20057;-66
2023/04/24 00:54:41;;;;;;;8.52;5.43;;;;;;;;;;10132693;28;20058;-67
2023/04/24 00:59:35;;;;;;;7.20;4.97;;;;;;;;;;10116966;28;20110;-66
2023/04/24 01:04:28;;;;;;;7.93;5.38;;;;;;;;;;10109145;28;20032;-67
2023/04/24 01:09:23;;;;;;;6.63;5.10;;;;;;;;;;10132366;28;20053;-66
2023/04/24 01:14:16;;;;;;;7.25;5.43;;;;;;;;;;10122061;28;20397;-66
2023/04/24 01:19:11;;;;;;;9.25;5.75;;;;;;;;;;10128201;28;20068;-66
2023/04/24 01:24:05;;;;;;;9.88;6.00;;;;;;;;;;10119134;28;20056;-66
2023/04/24 01:28:58;;;;;;;9.48;5.82;;;;;;;;;;10110648;28;20064;-66
2023/04/24 01:33:51;;;;;;;8.90;6.47;;;;;;;;;;10128313;28;20049;-66
2023/04/24 01:38:43;;;;;;;9.20;7.13;;;;;;;;;;10113274;28;20492;-66
2023/04/24 01:43:37;;;;;;;10.00;6.60;;;;;;;;;;10126561;28;20102;-67
2023/04/24 01:48:30;;;;;;;8.23;7.38;;;;;;;;;;10127988;28;20111;-67
2023/04/24 01:53:24;;;;;;;12.15;7.25;;;;;;;;;;10096194;28;20045;-67
2023/04/24 01:58:17;;;;;;;8.60;6.88;;;;;;;;;;10124769;28;20140;-66
2023/04/24 02:03:10;;;;;;;8.25;7.20;;;;;;;;;;10109694;28;20492;-65
2023/04/24 02:08:05;;;;;;;10.43;7.47;;;;;;;;;;10103833;28;20040;-66
2023/04/24 02:13:02;;;;;;;12.67;7.60;;;;;;;;;;10117641;28;20080;-67
2023/04/24 02:17:55;;;;;;;11.77;7.57;;;;;;;;;;10130225;28;20290;-66
2023/04/24 02:22:49;;;;;;;9.30;8.32;;;;;;;;;;10110025;28;20101;-66
2023/04/24 02:27:43;;;;;;;8.05;7.22;;;;;;;;;;10104780;28;20502;-66
2023/04/24 02:32:38;;;;;;;7.78;6.97;;;;;;;;;;10136232;28;20059;-65
2023/04/24 02:37:35;;;;;;;9.80;7.85;;;;;;;;;;10114164;28;20045;-66
2023/04/24 02:42:29;;;;;;;9.90;8.77;;;;;;;;;;10098189;28;20048;-67
2023/04/24 02:47:22;;;;;;;13.77;11.05;;;;;;;;;;10097130;28;20052;-66
2023/04/24 02:52:16;;;;;;;11.13;9.95;;;;;;;;;;10071092;28;20668;-67
2023/04/24 02:57:09;;;;;;;12.60;10.52;;;;;;;;;;10055806;28;20045;-66
2023/04/24 03:02:06;;;;;;;14.10;10.35;;;;;;;;;;10102122;28;20072;-66
2023/04/24 03:06:59;;;;;;;13.52;10.85;;;;;;;;;;10094422;28;20049;-66
2023/04/24 03:11:52;;;;;;;13.00;11.57;;;;;;;;;;10087498;28;20049;-66
2023/04/24 03:16:46;;;;;;;15.18;10.77;;;;;;;;;;10053563;28;20412;-67
2023/04/24 03:21:40;;;;;;;11.65;10.45;;;;;;;;;;10072461;28;20052;-66
2023/04/24 03:26:34;;;;;;;12.40;10.07;;;;;;;;;;10079602;28;20520;-67
2023/04/24 03:31:51;;;;;;;10.23;9.23;;;;;;;;;;10063060;28;20061;-67
2023/04/24 03:36:47;;;;;;;10.43;9.25;;;;;;;;;;10060769;28;20079;-66
2023/04/24 03:41:40;;;;;;;16.27;10.15;;;;;;;;;;10050466;28;20061;-66
2023/04/24 03:46:45;;;;;;;12.07;10.13;;;;;;;;;;10059876;28;20095;-66
2023/04/24 03:51:39;;;;;;;11.40;10.20;;;;;;;;;;10119921;28;20041;-67
2023/04/24 03:56:43;;;;;;;13.05;10.55;;;;;;;;;;10115558;28;20041;-69
2023/04/24 04:01:37;;;;;;;12.48;10.57;;;;;;;;;;10112568;28;20148;-69
2023/04/24 04:06:36;;;;;;;12.68;11.35;;;;;;;;;;10109944;28;20099;-69
2023/04/24 04:11:30;;;;;;;12.38;10.68;;;;;;;;;;10097058;28;20144;-68
2023/04/24 04:16:24;;;;;;;12.30;10.57;;;;;;;;;;10125360;28;20457;-68
2023/04/24 04:21:22;;;;;;;11.57;10.48;;;;;;;;;;10102632;28;20049;-68
2023/04/24 04:26:25;;;;;;;13.25;11.20;;;;;;;;;;10092820;28;20075;-67
2023/04/24 04:31:30;;;;;;;13.05;10.75;;;;;;;;;;10103030;28;20388;-68
2023/04/24 04:36:29;;;;;;;11.60;8.70;;;;;;;;;;10108048;28;20063;-68
2023/04/24 04:41:30;;;;;;;11.38;8.65;;;;;;;;;;10097934;28;20060;-68
2023/04/24 04:46:25;;;;;;;9.02;8.20;;;;;;;;;;10105581;28;20054;-68
2023/04/24 04:51:27;;;;;;;10.13;8.52;;;;;;;;;;10104193;28;20041;-67
2023/04/24 04:56:21;;;;;;;11.85;8.80;;;;;;;;;;10116243;28;20060;-68
2023/04/24 05:01:15;;;;;;;13.48;9.02;;;;;;;;;;10106855;28;20053;-67
2023/04/24 05:06:11;;;;;;;11.05;8.90;;;;;;;;;;10105956;28;20073;-67
2023/04/24 05:11:06;;;;;;;11.10;8.10;;;;;;;;;;10112049;28;20052;-68
2023/04/24 05:15:59;;;;;;;9.25;8.32;;;;;;;;;;10147997;28;20048;-67
2023/04/24 05:20:55;;;;;;;9.13;8.27;;;;;;;;;;10119565;28;20055;-67
2023/04/24 05:25:50;;;;;;;8.95;8.05;;;;;;;;;;10103111;28;20040;-67
2023/04/24 05:30:44;;;;;;;8.95;7.88;;;;;;;;;;10096192;28;20071;-67
2023/04/24 05:35:45;;;;;;;8.90;7.22;;;;;;;;;;10106570;28;20115;-68
2023/04/24 05:40:38;;;;;;;11.88;8.05;;;;;;;;;;10098115;28;20040;-68
2023/04/24 05:45:32;;;;;;;9.10;8.18;;;;;;;;;;10109035;28;20072;-68
2023/04/24 05:50:25;;;;;;;9.98;8.63;;;;;;;;;;10128411;28;20144;-68
2023/04/24 05:55:18;;;;;;;10.93;9.00;;;;;;;;;;10116998;28;20423;-68
2023/04/24 06:00:13;;;;;;;12.88;10.95;;;;;;;;;;10126879;28;20083;-68
2023/04/24 06:05:15;;;;;;;14.68;10.60;;;;;;;;;;10130566;28;20438;-68
2023/04/24 06:10:10;;;;;;;10.80;9.73;;;;;;;;;;10140354;28;20049;-68
2023/04/24 06:15:10;;;;;;;16.85;10.00;;;;;;;;;;10120964;28;20044;-68
2023/04/24 06:20:29;;;;;;;11.68;9.10;;;;;;;;;;10143619;28;20167;-68
2023/04/24 06:25:25;;;;;;;11.90;10.07;;;;;;;;;;10124815;28;20055;-67
2023/04/24 06:30:18;;;;;;;16.52;10.43;;;;;;;;;;10124115;28;20048;-67
2023/04/24 06:35:12;;;;;;;11.20;8.52;;;;;;;;;;10132763;28;20044;-67
2023/04/24 06:40:08;;;;;;;15.90;8.63;;;;;;;;;;10130053;28;20055;-68
2023/04/24 06:45:04;;;;;;;11.93;7.88;;;;;;;;;;10146898;28;20056;-67
2023/04/24 06:49:59;;;;;;;10.80;8.05;;;;;;;;;;10138530;28;20427;-66
2023/04/24 06:54:53;;;;;;;13.73;7.00;;;;;;;;;;10140111;28;20060;-67
2023/04/24 06:59:46;;;;;;;12.35;6.90;;;;;;;;;;10143069;28;20056;-67
2023/04/24 07:04:39;;;;;;;10.18;7.00;;;;;;;;;;10140325;28;20048;-66
2023/04/24 07:09:35;;;;;;;9.77;6.25;;;;;;;;;;10115410;28;20059;-66
2023/04/24 07:14:29;;;;;;;11.60;7.10;;;;;;;;;;10114932;28;20132;-66
2023/04/24 07:19:22;;;;;;;7.80;7.00;;;;;;;;;;10113852;28;20057;-67
2023/04/24 07:24:14;;;;;;;7.50;6.43;;;;;;;;;;10127487;28;20045;-66
2023/04/24 07:29:08;;;;;;;8.57;6.60;;;;;;;;;;10131261;28;20449;-68
2023/04/24 07:34:00;;;;;;;10.95;6.50;;;;;;;;;;10130989;28;20069;-67
2023/04/24 07:38:54;;;;;;;7.90;7.10;;;;;;;;;;10112372;28;20049;-68
2023/04/24 07:43:47;;;;;;;6.88;6.10;;;;;;;;;;10127425;28;20060;-68
2023/04/24 07:48:41;;;;;;;7.25;6.55;;;;;;;;;;10105986;28;20052;-69
2023/04/24 07:53:34;;;;;;;8.98;7.15;;;;;;;;;;10076488;28;20046;-68
2023/04/24 07:58:28;;;;;;;7.78;6.95;;;;;;;;;;10066890;28;20141;-68
2023/04/24 08:03:22;;;;;;;6.85;6.18;;;;;;;;;;10074970;28;20415;-69
2023/04/24 08:08:16;;;;;;;5.53;4.32;;;;;;;;;;10067436;28;20080;-68
2023/04/24 08:13:11;;;;;;;8.57;4.80;;;;;;;;;;10066453;28;20489;-69
2023/04/24 08:18:04;;;;;;;5.82;4.97;;;;;;;;;;10078278;28;20054;-67
2023/04/24 08:22:57;;;;;;;6.72;4.85;;;;;;;;;;10068341;28;20046;-67
2023/04/24 08:27:52;;;;;;;7.22;5.32;;;;;;;;;;10082178;28;21227;-72
2023/04/24 08:32:44;;;;;;;6.63;4.15;;;;;;;;;;10089920;28;20054;-74
2023/04/24 08:37:38;;;;;;;7.18;5.03;;;;;;;;;;10072528;28;20061;-75
2023/04/24 08:42:33;;;;;;;5.65;4.10;;;;;;;;;;10079997;28;20087;-74
2023/04/24 08:47:27;;;;;;;5.88;4.05;;;;;;;;;;10051863;28;20065;-74
2023/04/24 08:52:21;;;;;;;4.53;4.13;;;;;;;;;;10072368;28;20048;-75
2023/04/24 08:57:15;;;;;;;5.85;4.82;;;;;;;;;;10092145;28;20049;-75
2023/04/24 09:02:11;;;;;;;9.07;3.75;;;;;;;;;;10092250;28;20582;-75
2023/04/24 09:07:06;;;;;;;7.85;4.22;;;;;;;;;;10091866;28;20479;-73
2023/04/24 09:11:59;;;;;;;8.95;4.43;;;;;;;;;;10084171;28;20112;-73
2023/04/24 09:16:52;;;;;;;5.20;3.92;;;;;;;;;;10086672;28;20037;-73
2023/04/24 09:21:46;;;;;;;5.78;3.83;;;;;;;;;;10082298;28;20065;-72
2023/04/24 09:26:40;;;;;;;6.22;4.78;;;;;;;;;;10086670;28;20496;-71
2023/04/24 09:31:34;;;;;;;6.63;4.65;;;;;;;;;;10078953;28;20045;-71
2023/04/24 09:36:45;;;;;;;7.57;4.53;;;;;;;;;;10080815;28;20079;-71
2023/04/24 09:41:57;;;;;;;6.40;4.88;;;;;;;;;;10067799;28;20054;-71
2023/04/24 09:46:54;;;;;;;7.13;4.57;;;;;;;;;;10071416;28;20492;-71
2023/04/24 09:51:48;;;;;;;5.20;4.15;;;;;;;;;;10089180;28;20120;-72
2023/04/24 09:56:47;;;;;;;4.95;4.35;;;;;;;;;;10064616;28;20049;-72
2023/04/24 10:01:42;;;;;;;6.97;5.45;;;;;;;;;;10104074;28;20056;-73
2023/04/24 10:06:36;;;;;;;4.78;4.38;;;;;;;;;;10096254;28;20053;-71
2023/04/24 10:11:30;;;;;;;6.47;4.95;;;;;;;;;;10098125;28;20049;-72
2023/04/24 10:16:26;;;;;;;6.38;4.22;;;;;;;;;;10091572;28;20046;-72
2023/04/24 10:21:21;;;;;;;4.60;4.20;;;;;;;;;;10054361;28;20412;-72
2023/04/24 10:26:17;;;;;;;7.15;4.63;;;;;;;;;;10062995;28;20645;-72
2023/04/24 10:31:11;;;;;;;4.80;4.30;;;;;;;;;;10089685;28;20053;-73
2023/04/24 10:36:05;;;;;;;5.07;3.50;;;;;;;;;;10069994;28;20049;-73
2023/04/24 10:41:22;;;;;;;8.00;4.50;;;;;;;;;;10077903;28;20069;-71
2023/04/24 10:46:23;;;;;;;4.57;3.77;;;;;;;;;;10074632;28;20536;-71
2023/04/24 10:51:17;;;;;;;7.30;3.65;;;;;;;;;;10110896;28;20063;-71
2023/04/24 10:56:12;;;;;;;5.45;3.60;;;;;;;;;;10130903;28;20135;-72
2023/04/24 11:01:06;;;;;;;6.07;3.08;;;;;;;;;;10121117;28;20045;-72
2023/04/24 11:06:06;;;;;;;4.82;2.92;;;;;;;;;;10114803;28;20044;-73
2023/04/24 11:11:17;;;;;;;2.95;2.65;;;;;;;;;;10126558;28;20067;-73
2023/04/24 11:16:33;;;;;;;3.58;2.80;;;;;;;;;;10149240;28;20056;-73
2023/04/24 11:21:48;;;;;;;3.03;2.00;;;;;;;;;;10140197;28;20055;-71
2023/04/24 11:26:42;;;;;;;4.05;2.25;;;;;;;;;;10150313;28;20434;-73
2023/04/24 11:31:48;;;;;;;2.85;1.90;;;;;;;;;;10129039;28;20040;-73
2023/04/24 11:36:48;;;;;;;3.60;2.10;;;;;;;;;;10131591;28;20072;-73
2023/04/24 11:41:42;;;;;;;8.05;3.22;;;;;;;;;;10131432;28;20534;-73
2023/04/24 11:46:37;;;;;;;2.83;2.50;;;;;;;;;;10133680;28;20102;-74
2023/04/24 11:51:32;;;;;;;3.67;2.35;;;;;;;;;;10131236;28;20439;-71
2023/04/24 11:56:47;;;;;;;2.05;1.88;;;;;;;;;;10123282;28;20056;-73
2023/04/24 12:01:45;;;;;;;3.92;2.53;;;;;;;;;;10133749;28;20440;-71
2023/04/24 12:06:38;;;;;;;3.88;2.00;;;;;;;;;;10124270;28;20041;-71
2023/04/24 12:11:32;;;;;;;3.55;2.03;;;;;;;;;;10125214;28;20443;-74
2023/04/24 12:16:26;;;;;;;3.88;1.60;;;;;;;;;;10123016;28;20049;-74
2023/04/24 12:21:39;;;;;;;6.88;2.60;;;;;;;;;;10127033;28;20463;-72
2023/04/24 12:26:34;;;;;;;3.47;2.55;;;;;;;;;;10116034;28;20045;-76
2023/04/24 12:31:30;;;;;;;4.15;2.55;;;;;;;;;;10135648;28;21904;-74
2023/04/24 12:36:23;;;;;;;1.75;1.52;;;;;;;;;;10130019;28;20056;-76
2023/04/24 12:41:19;;;;;;;2.67;1.98;;;;;;;;;;10129871;28;20045;-75
2023/04/24 12:46:12;;;;;;;4.50;2.05;;;;;;;;;;10129777;28;20127;-80
2023/04/24 12:51:08;;;;;;;3.30;2.40;;;;;;;;;;10115429;28;20053;-77
2023/04/24 12:56:01;;;;;;;5.93;2.45;;;;;;;;;;10113391;28;20131;-74
2023/04/24 13:00:54;;;;;;;4.50;2.20;;;;;;;;;;10126870;28;20048;-73
2023/04/24 13:05:47;;;;;;;4.80;2.30;;;;;;;;;;10119109;28;20041;-74
2023/04/24 13:10:41;;;;;;;3.45;2.15;;;;;;;;;;10110562;28;20049;-74
2023/04/24 13:15:35;;;;;;;5.78;2.00;;;;;;;;;;10116583;28;20106;-75
2023/04/24 13:20:28;;;;;;;2.85;1.65;;;;;;;;;;10135219;28;20048;-75
2023/04/24 13:25:23;;;;;;;2.10;1.90;;;;;;;;;;10139126;28;20552;-74
2023/04/24 13:30:16;;;;;;;2.45;2.25;;;;;;;;;;10125904;28;20060;-75
2023/04/24 13:35:09;;;;;;;2.50;1.85;;;;;;;;;;10125286;28;20048;-75
2023/04/24 13:40:05;;;;;;;3.65;2.10;;;;;;;;;;10116080;28;20055;-74
2023/04/24 13:44:59;;;;;;;2.70;2.50;;;;;;;;;;10134205;28;20095;-75
2023/04/24 13:50:02;;;;;;;4.00;3.17;;;;;;;;;;10136961;28;20052;-75
2023/04/24 13:54:56;;;;;;;5.47;2.70;;;;;;;;;;10125650;28;20053;-75
2023/04/24 13:59:50;;;;;;;4.20;2.63;;;;;;;;;;10117124;28;20056;-75
2023/04/24 14:04:43;;;;;;;4.70;2.30;;;;;;;;;;10119170;28;20490;-75
2023/04/24 14:09:37;;;;;;;4.10;2.28;;;;;;;;;;10121525;28;20075;-75
2023/04/24 14:14:31;;;;;;;2.53;2.13;;;;;;;;;;10111492;28;20079;-78
2023/04/24 14:19:25;;;;;;;4.65;2.10;;;;;;;;;;10139577;28;20056;-78
2023/04/24 14:24:20;;;;;;;3.63;2.78;;;;;;;;;;10121153;28;20483;-78
2023/04/24 14:29:13;;;;;;;4.00;2.35;;;;;;;;;;10113309;28;20041;-78
2023/04/24 14:34:07;;;;;;;2.63;2.42;;;;;;;;;;10111083;28;20558;-78
2023/04/24 14:39:06;;;;;;;4.65;1.40;;;;;;;;;;10123834;28;20056;-73
2023/04/24 14:44:00;;;;;;;1.23;1.00;;;;;;;;;;10118783;28;20045;-75
2023/04/24 14:48:53;;;;;;;2.65;1.60;;;;;;;;;;10094092;28;20160;-75
2023/04/24 14:53:47;;;;;;;2.17;0.95;;;;;;;;;;10084455;28;20057;-75
2023/04/24 14:58:40;;;;;;;2.78;0.63;;;;;;;;;;10072894;28;20052;-72
2023/04/24 15:03:33;;;;;;;1.02;0.52;;;;;;;;;;10078927;28;20524;-71
2023/04/24 15:08:27;;;;;;;2.67;0.40;;;;;;;;;;10070206;28;20056;-72
2023/04/24 15:13:19;;;;;;;0.20;0.20;;;;;;;;;;10083350;28;20061;-72
2023/04/24 15:18:13;;;;;;;0.55;0.40;;;;;;;;;;10089575;28;20064;-72
2023/04/24 15:23:07;;;;;;;0.52;0.50;;;;;;;;;;10090313;28;20049;-75
2023/04/24 15:28:00;;;;;;;2.95;0.47;;;;;;;;;;10088888;28;20055;-73
2023/04/24 15:32:52;;;;;;;1.17;0.50;;;;;;;;;;10070774;28;20061;-75
2023/04/24 15:37:46;;;;;;;3.00;0.68;;;;;;;;;;10097262;28;20095;-74
2023/04/24 15:42:40;;;;;;;50.95;34.83;;;;;;;;;;10094809;28;20041;-76
2023/04/24 15:47:33;;;;;;;1.95;1.30;;;;;;;;;;10100467;28;20060;-76
2023/04/24 15:52:26;;;;;;;9.75;8.98;;;;;;;;;;10107228;28;20049;-76
2023/04/24 15:57:20;;;;;;;2.17;1.05;;;;;;;;;;10122544;28;20496;-77
2023/04/24 16:02:19;;;;;;;2.30;2.13;;;;;;;;;;10116141;28;20136;-75
2023/04/24 16:07:14;;;;;;;11.07;8.65;;;;;;;;;;10122908;28;20489;-73
2023/04/24 16:12:09;;;;;;;4.72;3.03;;;;;;;;;;10135540;28;20045;-73
2023/04/24 16:17:02;;;;;;;1.88;1.10;;;;;;;;;;10121505;28;20049;-73
2023/04/24 16:21:57;;;;;;;3.03;2.22;;;;;;;;;;10138631;28;20103;-73
2023/04/24 16:26:52;;;;;;;6.32;2.30;;;;;;;;;;10120997;28;20051;-74
2023/04/24 16:31:45;;;;;;;8.50;5.70;;;;;;;;;;10101325;28;20056;-75
2023/04/24 16:36:39;;;;;;;7.38;5.60;;;;;;;;;;10108773;28;20087;-75
2023/04/24 16:41:32;;;;;;;2.15;1.88;;;;;;;;;;10116137;28;20041;-77
2023/04/24 16:46:26;;;;;;;1.83;1.08;;;;;;;;;;10136400;28;20048;-75
2023/04/24 16:51:20;;;;;;;1.77;1.20;;;;;;;;;;10078317;28;20166;-75
2023/04/24 16:56:15;;;;;;;3.17;1.98;;;;;;;;;;10065569;28;20424;-73
2023/04/24 17:01:08;;;;;;;6.82;3.38;;;;;;;;;;10074099;28;20057;-75
2023/04/24 17:06:01;;;;;;;10.60;8.02;;;;;;;;;;10077809;28;20068;-74
2023/04/24 17:10:55;;;;;;;4.35;1.42;;;;;;;;;;10084381;28;20037;-75
2023/04/24 17:15:50;;;;;;;2.15;1.17;;;;;;;;;;10092369;28;20056;-74
2023/04/24 17:20:44;;;;;;;2.83;1.90;;;;;;;;;;10072925;28;20059;-75
2023/04/24 17:25:38;;;;;;;2.45;1.70;;;;;;;;;;10075116;28;20136;-74
2023/04/24 17:30:32;;;;;;;1.40;1.17;;;;;;;;;;10093152;28;20124;-74
2023/04/24 17:35:25;;;;;;;7.25;5.25;;;;;;;;;;10082854;28;20049;-73
2023/04/24 17:40:19;;;;;;;4.63;3.65;;;;;;;;;;10080922;28;20045;-74
2023/04/24 17:45:13;;;;;;;4.05;1.45;;;;;;;;;;10080685;28;20506;-73
2023/04/24 17:50:08;;;;;;;12.50;3.25;;;;;;;;;;10124206;28;20060;-74
2023/04/24 17:55:01;;;;;;;5.32;2.80;;;;;;;;;;10128775;28;20434;-73
2023/04/24 17:59:56;;;;;;;1.60;1.33;;;;;;;;;;10121952;28;20135;-75
2023/04/24 18:04:49;;;;;;;2.60;1.25;;;;;;;;;;10106808;28;20107;-75
2023/04/24 18:09:47;;;;;;;4.72;1.48;;;;;;;;;;10131888;28;20558;-76
2023/04/24 18:14:42;;;;;;;5.90;4.30;;;;;;;;;;10127435;28;20044;-69
2023/04/24 18:19:35;;;;;;;1.98;1.27;;;;;;;;;;10125061;28;20040;-75
2023/04/24 18:24:29;;;;;;;2.38;1.38;;;;;;;;;;10136679;28;20052;-79
2023/04/24 18:29:23;;;;;;;5.32;1.70;;;;;;;;;;10142170;28;20097;-80
2023/04/24 18:34:18;;;;;;;2.40;1.30;;;;;;;;;;10146711;28;20045;-85
2023/04/24 18:39:12;;;;;;;2.83;1.85;;;;;;;;;;10152417;28;20471;-77
2023/04/24 18:44:08;;;;;;;2.47;2.28;;;;;;;;;;10146808;28;20165;-81
2023/04/24 18:49:01;;;;;;;9.40;3.88;;;;;;;;;;10147417;28;20106;-81
2023/04/24 18:53:55;;;;;;;11.13;3.22;;;;;;;;;;10144741;28;20098;-72
2023/04/24 18:58:49;;;;;;;5.13;1.52;;;;;;;;;;10142001;28;20122;-74
2023/04/24 19:03:43;;;;;;;3.17;1.52;;;;;;;;;;10142399;28;20045;-74
2023/04/24 19:08:37;;;;;;;3.63;1.80;;;;;;;;;;10143049;28;20048;-73
2023/04/24 19:13:30;;;;;;;2.03;1.33;;;;;;;;;;10145152;28;20049;-75
2023/04/24 19:18:25;;;;;;;3.20;1.20;;;;;;;;;;10142136;28;20037;-73
2023/04/24 19:23:18;;;;;;;5.88;1.58;;;;;;;;;;10131321;28;20118;-76
2023/04/24 19:28:12;;;;;;;2.95;1.42;;;;;;;;;;10142519;28;20071;-74
2023/04/24 19:33:05;;;;;;;1.73;1.27;;;;;;;;;;10139073;28;20056;-77
2023/04/24 19:38:02;;;;;;;1.95;1.10;;;;;;;;;;10121547;28;20053;-79
2023/04/24 19:42:56;;;;;;;7.47;1.88;;;;;;;;;;10130749;28;20110;-79
2023/04/24 19:47:50;;;;;;;3.05;1.67;;;;;;;;;;10140790;28;20064;-79
2023/04/24 19:52:44;;;;;;;4.50;1.60;;;;;;;;;;10145914;28;20133;-76
2023/04/24 19:57:38;;;;;;;2.00;1.80;;;;;;;;;;10158811;28;20123;-76
2023/04/24 20:02:30;;;;;;;4.47;3.40;;;;;;;;;;10151594;28;20079;-76
2023/04/24 20:07:24;;;;;;;6.75;2.28;;;;;;;;;;10143470;28;20037;-80
2023/04/24 20:12:19;;;;;;;3.30;2.28;;;;;;;;;;10139189;28;20049;-77
2023/04/24 20:17:13;;;;;;;3.00;1.95;;;;;;;;;;10141990;28;20126;-78
2023/04/24 20:22:07;;;;;;;2.72;2.25;;;;;;;;;;10153257;28;20438;-74
2023/04/24 20:27:04;;;;;;;6.57;2.75;;;;;;;;;;10142458;28;20049;-76
2023/04/24 20:31:57;;;;;;;4.50;2.50;;;;;;;;;;10154084;28;20086;-73
2023/04/24 20:36:51;;;;;;;3.15;2.60;;;;;;;;;;10130598;28;20083;-70
2023/04/24 20:41:45;;;;;;;8.38;2.72;;;;;;;;;;10157148;28;20137;-74
2023/04/24 20:46:37;;;;;;;2.40;2.13;;;;;;;;;;10154816;28;20136;-74
2023/04/24 20:51:32;;;;;;;3.97;3.58;;;;;;;;;;10159026;28;20135;-75
2023/04/24 20:56:25;;;;;;;5.40;2.50;;;;;;;;;;10161638;28;20122;-76
2023/04/24 21:01:19;;;;;;;4.20;3.13;;;;;;;;;;10150057;28;20060;-76
2023/04/24 21:06:13;;;;;;;5.32;3.72;;;;;;;;;;10151084;28;20052;-72
2023/04/24 21:11:06;;;;;;;5.70;4.10;;;;;;;;;;10159114;28;20045;-67
2023/04/24 21:16:00;;;;;;;5.50;4.90;;;;;;;;;;10151117;28;20131;-69
2023/04/24 21:20:54;;;;;;;6.10;5.20;;;;;;;;;;10142032;28;20063;-69
2023/04/24 21:25:47;;;;;;;5.68;4.85;;;;;;;;;;10143118;28;20048;-71
2023/04/24 21:30:40;;;;;;;7.53;4.70;;;;;;;;;;10128981;28;20513;-70
2023/04/24 21:35:34;;;;;;;8.30;4.95;;;;;;;;;;10127496;28;20135;-70
2023/04/24 21:40:27;;;;;;;6.95;5.93;;;;;;;;;;10144159;28;20113;-70
2023/04/24 21:45:20;;;;;;;6.15;4.93;;;;;;;;;;10149083;28;20495;-72
2023/04/24 21:50:14;;;;;;;11.73;6.43;;;;;;;;;;10150801;28;20504;-67
2023/04/24 21:55:07;;;;;;;8.15;5.70;;;;;;;;;;10133984;28;20119;-72
2023/04/24 22:00:07;;;;;;;9.63;6.43;;;;;;;;;;10132655;28;20106;-68
2023/04/24 22:05:03;;;;;;;9.00;5.47;;;;;;;;;;10131916;28;20128;-69
2023/04/24 22:09:57;;;;;;;7.95;6.00;;;;;;;;;;10131768;28;20488;-69
2023/04/24 22:14:51;;;;;;;9.25;5.25;;;;;;;;;;10131631;28;20048;-68
2023/04/24 22:19:45;;;;;;;8.10;5.40;;;;;;;;;;10131837;28;20495;-67
2023/04/24 22:24:38;;;;;;;6.72;5.43;;;;;;;;;;10123919;28;20041;-67
2023/04/24 22:29:32;;;;;;;9.63;6.68;;;;;;;;;;10119884;28;20116;-67
2023/04/24 22:34:26;;;;;;;11.90;5.93;;;;;;;;;;10115206;28;20099;-68
2023/04/24 22:39:20;;;;;;;7.93;5.38;;;;;;;;;;10115364;28;20060;-69
2023/04/24 22:44:14;;;;;;;11.38;5.53;;;;;;;;;;10126957;28;20048;-68
2023/04/24 22:49:09;;;;;;;8.45;5.00;;;;;;;;;;10121096;28;20058;-68
2023/04/24 22:54:06;;;;;;;11.27;4.78;;;;;;;;;;10120252;28;20059;-68
2023/04/24 22:58:59;;;;;;;11.25;4.00;;;;;;;;;;10115234;28;20061;-68
2023/04/24 23:03:52;;;;;;;7.22;5.35;;;;;;;;;;10111666;28;20053;-68
2023/04/24 23:08:47;;;;;;;8.02;6.10;;;;;;;;;;10138362;28;20432;-68
2023/04/24 23:13:40;;;;;;;8.27;6.15;;;;;;;;;;10132718;28;20094;-68
2023/04/24 23:18:34;;;;;;;7.47;5.65;;;;;;;;;;10108833;28;20045;-69
2023/04/24 23:23:27;;;;;;;7.05;5.68;;;;;;;;;;10116721;28;20053;-69
2023/04/24 23:28:20;;;;;;;7.68;6.10;;;;;;;;;;10114474;28;20049;-69
2023/04/24 23:33:14;;;;;;;6.78;5.88;;;;;;;;;;10111886;28;20052;-69
2023/04/24 23:38:08;;;;;;;8.15;5.70;;;;;;;;;;10111983;28;20103;-67
2023/04/24 23:43:01;;;;;;;7.47;6.60;;;;;;;;;;10129287;28;20051;-68
2023/04/24 23:47:59;;;;;;;7.80;6.57;;;;;;;;;;10142264;28;20052;-68
2023/04/24 23:52:52;;;;;;;7.45;5.90;;;;;;;;;;10139431;28;20045;-68
2023/04/24 23:57:45;;;;;;;6.72;5.72;;;;;;;;;;10133183;28;20482;-67
